• Join FlightAware (Why Join?)
  • Login
  • US Flag 
09:45PM EDT


 

Airport Tracker/Info


-or-


 

Live Flight TrackerFlight Track Log ✈ N108RJ ✈ 08-Oct-2013 ✈ KLWS - KUAO

Flight Track Log - Related Links

Times and Time Zones

All times are in EDT time to prevent confusion due to time zone crossing. See the N108RJ flight status page for this flight to view local times or setup timezone preferences in your user account.

Time Position Orientation Groundspeed Altitude Reporting Facility
EDT Latitude Longitude Course Direction KTS MPH feet Rate Location/Type
07:56PM 46.3322 -117.0197 254° West 174 200 6,100  Level Seattle Center
07:57PM 46.2843 -117.5466 257° West  Level Estimated
07:57PM 46.3214 -117.0875 257° West 175 201 8,100  Level Seattle Center
07:58PM 46.2691 -117.6349 257° West  Level Estimated
07:58PM 46.3119 -117.1517 258° West 171 197 9,600  Level Seattle Center
07:59PM 46.2539 -117.7233 256° West  Level FlightAware Approximate
07:59PM 46.3039 -117.2217 261° West 172 198 11,500  Level Seattle Center
08:00PM 46.2385 -117.8116 261° West  Level Estimated
08:00PM 46.2933 -117.2886 257° West 172 198 13,500  Level Seattle Center
08:01PM 46.2839 -117.3594 259° West 177 204 15,400 1,860 Climbing Seattle Center
08:02PM 46.2719 -117.4297 256° West 180 207 17,300 1,680 Climbing Seattle Center
08:03PM 46.2611 -117.5000 257° West 179 206 18,800 1,620 Climbing Seattle Center
08:04PM 46.2517 -117.5728 259° West 183 211 20,600 1,620 Climbing Seattle Center
08:05PM 46.2392 -117.6428 256° West 181 208 22,200 1,620 Climbing Seattle Center
08:06PM 46.2297 -117.7117 259° West 176 203 23,900 840 Climbing Seattle Center
08:07PM 46.2161 -117.7836 255° West 185 213 24,000  Climbing Seattle Center
08:08PM 46.2042 -117.8706 259° West 215 247 24,000  Level Seattle Center
08:09PM 46.1892 -117.9589 256° West 225 259 24,000  Level Seattle Center
08:10PM 46.1731 -118.0678 258° West 231 266 24,000  Level Seattle Center
08:11PM 46.1578 -118.1597 257° West 234 269 24,000  Level Seattle Center
08:12PM 46.1431 -118.2533 257° West 240 276 24,000  Level Seattle Center
08:13PM 46.1286 -118.3469 257° West 240 276 24,000  Level Seattle Center
08:14PM 46.1128 -118.4397 256° West 239 275 24,000  Level Seattle Center
08:15PM 46.0994 -118.5233 257° West 238 274 24,000  Level Seattle Center
08:16PM 46.0844 -118.6164 257° West 238 274 24,000  Level Seattle Center
08:17PM 46.0667 -118.7269 257° West 237 273 24,000  Level Seattle Center
08:18PM 46.0506 -118.8208 256° West 241 277 24,000  Level Seattle Center
08:19PM 46.0353 -118.9111 256° West 235 270 24,000  Level Seattle Center
08:20PM 46.0200 -119.0036 257° West 238 274 24,000  Level Seattle Center
08:21PM 46.0044 -119.0950 256° West 237 273 24,000  Level Seattle Center
08:22PM 45.9883 -119.1881 256° West 240 276 24,000  Level Seattle Center
08:23PM 45.9722 -119.2792 256° West 237 273 24,000  Level Seattle Center
08:24PM 45.9569 -119.3711 257° West 237 273 24,000  Level Seattle Center
08:25PM 45.9414 -119.4650 257° West 241 277 24,000  Level Seattle Center
08:26PM 45.9250 -119.5572 256° West 241 277 24,000  Level Seattle Center
08:27PM 45.9097 -119.6508 257° West 241 277 24,000  Level Seattle Center
08:28PM 45.9067 -119.6719 257° West  Level FlightAware Approximate
08:28PM 45.8931 -119.7461 256° West 246 283 24,000  Level Seattle Center
08:29PM 45.8758 -119.8417 256° West 248 285 24,000  Level Seattle Center
08:30PM 45.8553 -119.9583 256° West 251 289 24,000  Level Seattle Center
08:31PM 45.8378 -120.0597 256° West 260 299 24,000  Level Seattle Center
08:32PM 45.8189 -120.1600 255° West 262 302 24,000  Level Seattle Center
08:33PM 45.8014 -120.2583 256° West 258 297 24,000  Level Seattle Center
08:34PM 45.7825 -120.3594 255° West 262 302 24,000  Level Seattle Center
08:35PM 45.7647 -120.4628 256° West 267 307 24,000  Level Seattle Center
08:36PM 45.7436 -120.5653 254° West 269 310 24,000  Level Seattle Center
08:37PM 45.6992 -120.6539 234° Southwest 273 314 24,000  Level Seattle Center
08:38PM 45.6558 -120.7442 236° Southwest 277 319 24,000  Level Seattle Center
08:39PM 45.6200 -120.8403 242° Southwest 278 320 24,000  Level Seattle Center
08:40PM 45.6097 -120.9689 264° West 277 319 24,000 -480 Level Seattle Center
08:41PM 45.5978 -121.0786 261° West 281 323 23,100 -720 Descending Seattle Center
08:42PM 45.5861 -121.1878 261° West 282 325 22,600 -1,080 Descending Seattle Center
08:43PM 45.5739 -121.2964 261° West 281 323 21,000 -1,560 Descending Seattle Center
08:44PM 45.5625 -121.4061 262° West 282 325 19,500 -1,620 Descending Seattle Center
08:45PM 45.5522 -121.5025 261° West 280 322 18,100 -1,680 Descending Seattle Center
08:46PM 45.5514 -121.5172 265° West 284 327 17,800 -1,500 Descending Seattle Center
08:47PM 45.5372 -121.6242 259° West 278 320 16,300 -840 Descending Seattle Center
08:48PM 45.5311 -121.7436 266° West 248 285 16,000 -660 Descending Seattle Center
08:49PM 45.5078 -121.8189 246° West 269 310 15,000 -1,320 Descending Seattle Center
08:49PM 45.5056 -121.8286 252° West 271 312 14,800 -1,680 Descending Seattle Center
08:50PM 45.4697 -121.9097 238° Southwest 271 312 13,300 -1,740 Descending Seattle Center
08:50PM 45.4603 -121.9342 241° Southwest 274 315 12,900 -1,920 Descending Seattle Center
08:51PM 45.4217 -122.0186 237° Southwest 280 322 11,400 -1,680 Descending Seattle Center
08:51PM 45.4197 -122.0314 258° West 278 320 11,200 -1,500 Descending Seattle Center
08:52PM 45.3850 -122.1106 238° Southwest 274 315 9,900 -1,020 Descending Seattle Center
08:53PM 45.3517 -122.1947 241° Southwest 254 292 9,300 -780 Descending Seattle Center
08:53PM 45.3450 -122.2164 246° West 231 266 9,000 -1,620 Descending Seattle Center
08:54PM 45.3194 -122.2778 239° Southwest 244 281 7,700 -1,800 Descending Seattle Center
08:54PM 45.3139 -122.2969 248° West 251 289 7,400 -1,680 Descending Seattle Center
08:55PM 45.2975 -122.3675 252° West 243 280 6,000 -1,680 Descending Seattle Center
08:55PM 45.2975 -122.3867 270° West 231 266 5,700 -1,980 Descending Seattle Center
08:56PM 45.2897 -122.4761 263° West 243 280 4,000 -1,440 Descending Seattle Center
08:57PM 45.2794 -122.5569 260° West 242 278 3,000 -840 Descending Seattle Center
08:57PM 45.2781 -122.5789 265° West 215 247 3,000  Level Seattle Center
08:58PM 45.2717 -122.6411 262° West 239 275 3,000  Level Seattle Center